Weather at Börgönd Airfield

Public forecast

Using degrees Celsius for public forecast. Weather courtesy of forecast.io.

Closest aviation weather report (METAR) to Börgönd Airfield

Closest report is Budapest Liszt Ferenc International Airport, 35.9 nm (66.5 km) ENE. Retrieved 2022/01/29 07:00 UTC (23 minutes ago):

LHBP 290700Z VRB02KT CAVOK M02/M06 Q1027 NOSIG

Closest aviation forecast (TAF) to Börgönd Airfield

Closest forecast is Budapest Liszt Ferenc International Airport, 35.9 nm (66.5 km) ENE. Retrieved 2022/01/29 06:07 UTC (1 hour ago):

TAF COR LHBP 290550Z 2906/3006 32007KT CAVOK BECMG 2907/2910 26008KT BECMG 2913/2916 6000 -RA -RASN BKN030 OVC070 TEMPO 2916/3001 23014KT 3000 RASN BKN008 OVC030 BECMG 3001/3003 27013KT 9999 NSW SCT030 TEMPO 3003/3006 30018G30KT 4000 SHRAGS BKN012 SCT020TCU